Time;durP1;ratioP1;P1;durP2;ratioP2;P2;SDS_P1;SDS_P2;PMS_P1;PMS_P2;Temp;Humidity;BMP_temperature;BMP_pressure;BME280_temperature;BME280_humidity;BME280_pressure;Samples;Min_cycle;Max_cycle;Signal;HPM_P1;HPM_P2
2021/12/01 00:00:17;;;;;;;12.93;5.90;;;;;;;;;;5054773;28;20027;-64
2021/12/01 00:02:43;;;;;;;13.82;5.22;;;;;;;;;;5054775;28;20116;-63
2021/12/01 00:05:10;;;;;;;12.13;4.25;;;;;;;;;;5036654;28;20033;-65
2021/12/01 00:07:37;;;;;;;5.63;3.20;;;;;;;;;;5054692;28;20056;-64
2021/12/01 00:10:05;;;;;;;15.18;6.55;;;;;;;;;;5054565;28;20495;-64
2021/12/01 00:12:31;;;;;;;9.43;4.82;;;;;;;;;;5036615;28;20112;-65
2021/12/01 00:14:58;;;;;;;8.27;3.45;;;;;;;;;;5036537;28;20025;-65
2021/12/01 00:17:25;;;;;;;6.30;2.92;;;;;;;;;;5036552;28;20376;-64
2021/12/01 00:19:51;;;;;;;7.22;3.17;;;;;;;;;;5036581;28;20029;-63
2021/12/01 00:22:17;;;;;;;7.63;3.35;;;;;;;;;;5036400;28;20459;-63
2021/12/01 00:24:44;;;;;;;7.28;3.08;;;;;;;;;;5054214;28;20484;-64
2021/12/01 00:27:10;;;;;;;5.20;2.85;;;;;;;;;;5054244;28;20508;-65
2021/12/01 00:29:36;;;;;;;5.38;3.00;;;;;;;;;;5054236;28;20149;-64
2021/12/01 00:32:03;;;;;;;7.07;3.05;;;;;;;;;;5054197;28;20057;-64
2021/12/01 00:34:29;;;;;;;11.50;3.85;;;;;;;;;;5054077;28;20056;-64
2021/12/01 00:36:56;;;;;;;11.45;4.35;;;;;;;;;;5054072;28;20033;-65
2021/12/01 00:39:22;;;;;;;8.27;4.22;;;;;;;;;;5053994;28;20096;-63
2021/12/01 00:41:50;;;;;;;7.18;3.85;;;;;;;;;;5053981;28;20139;-64
2021/12/01 00:44:16;;;;;;;6.78;3.22;;;;;;;;;;5053933;28;20029;-63
2021/12/01 00:46:54;;;;;;;7.18;2.83;;;;;;;;;;5035949;28;20128;-63
2021/12/01 00:49:20;;;;;;;6.93;3.10;;;;;;;;;;5053748;28;20079;-64
2021/12/01 00:51:46;;;;;;;8.48;4.03;;;;;;;;;;5052885;28;20045;-63
2021/12/01 00:54:12;;;;;;;9.07;4.63;;;;;;;;;;5053695;28;20529;-63
2021/12/01 00:56:38;;;;;;;6.80;3.42;;;;;;;;;;5053764;28;20039;-63
2021/12/01 00:59:05;;;;;;;6.22;3.35;;;;;;;;;;5035823;28;20060;-63
2021/12/01 01:01:32;;;;;;;13.93;6.03;;;;;;;;;;5053638;28;20105;-63
2021/12/01 01:04:03;;;;;;;14.02;5.68;;;;;;;;;;5035695;28;20480;-63
2021/12/01 01:06:29;;;;;;;17.73;6.25;;;;;;;;;;5053469;28;20093;-63
2021/12/01 01:08:56;;;;;;;12.77;5.55;;;;;;;;;;5053515;28;20083;-66
2021/12/01 01:16:52;;;;;;;8.38;4.03;;;;;;;;;;5053168;28;20071;-64
2021/12/01 01:19:18;;;;;;;12.15;5.75;;;;;;;;;;5053343;28;20484;-64
2021/12/01 01:21:49;;;;;;;14.48;6.07;;;;;;;;;;5053017;28;20047;-64
2021/12/01 01:24:16;;;;;;;18.63;7.95;;;;;;;;;;5053320;28;20503;-62
2021/12/01 01:26:42;;;;;;;18.10;7.70;;;;;;;;;;5053167;28;20115;-63
2021/12/01 01:29:10;;;;;;;13.40;5.80;;;;;;;;;;5052933;28;20403;-64
2021/12/01 01:31:36;;;;;;;13.98;6.18;;;;;;;;;;5053229;28;20033;-63
2021/12/01 01:34:04;;;;;;;14.93;6.40;;;;;;;;;;5053143;28;20032;-63
2021/12/01 01:36:30;;;;;;;22.25;9.30;;;;;;;;;;5053099;28;20104;-63
2021/12/01 01:38:57;;;;;;;6.72;3.95;;;;;;;;;;5053120;28;20068;-64
2021/12/01 01:41:24;;;;;;;10.30;5.13;;;;;;;;;;5053053;28;20021;-63
2021/12/01 01:43:51;;;;;;;14.80;7.55;;;;;;;;;;5053059;28;20021;-64
2021/12/01 01:46:18;;;;;;;13.05;5.93;;;;;;;;;;5052973;28;20036;-64
2021/12/01 01:48:47;;;;;;;10.00;5.70;;;;;;;;;;5053001;28;20112;-64
2021/12/01 01:51:14;;;;;;;7.20;4.03;;;;;;;;;;5052535;28;20508;-64
2021/12/01 01:53:42;;;;;;;6.15;3.42;;;;;;;;;;5052608;28;20509;-64
2021/12/01 01:56:10;;;;;;;10.07;4.45;;;;;;;;;;5053147;28;20116;-64
2021/12/01 01:58:36;;;;;;;10.70;3.35;;;;;;;;;;5052903;28;20074;-63
2021/12/01 02:01:08;;;;;;;5.78;3.42;;;;;;;;;;5053224;28;20017;-64
2021/12/01 02:03:37;;;;;;;10.05;3.45;;;;;;;;;;5056801;28;20397;-63
2021/12/01 02:06:04;;;;;;;7.75;4.38;;;;;;;;;;5056861;28;20051;-63
2021/12/01 02:08:34;;;;;;;7.50;4.28;;;;;;;;;;5056959;28;20053;-64
2021/12/01 02:11:02;;;;;;;31.48;13.25;;;;;;;;;;5056942;28;20028;-64
2021/12/01 02:13:29;;;;;;;48.45;21.85;;;;;;;;;;5056843;28;20704;-63
2021/12/01 02:15:56;;;;;;;89.32;35.58;;;;;;;;;;5056994;28;20346;-64
2021/12/01 02:18:22;;;;;;;77.28;30.48;;;;;;;;;;5056532;28;20035;-65
2021/12/01 02:21:04;;;;;;;62.67;27.13;;;;;;;;;;5038756;28;20060;-63
2021/12/01 02:23:30;;;;;;;53.17;24.52;;;;;;;;;;5056652;28;20427;-63
2021/12/01 02:25:57;;;;;;;48.63;22.08;;;;;;;;;;5056498;28;20029;-63
2021/12/01 02:28:23;;;;;;;52.15;24.98;;;;;;;;;;5056589;28;20075;-63
2021/12/01 02:30:50;;;;;;;60.55;28.65;;;;;;;;;;5056492;28;20083;-63
2021/12/01 02:33:16;;;;;;;55.95;26.00;;;;;;;;;;5056438;28;20053;-63
2021/12/01 02:35:42;;;;;;;54.95;24.73;;;;;;;;;;5056412;28;20033;-63
2021/12/01 02:38:09;;;;;;;57.78;26.13;;;;;;;;;;5056329;28;20021;-64
2021/12/01 02:40:35;;;;;;;60.33;26.73;;;;;;;;;;5038351;28;20056;-63
2021/12/01 02:43:01;;;;;;;51.83;25.48;;;;;;;;;;5056290;28;20076;-63
2021/12/01 02:45:27;;;;;;;52.95;24.48;;;;;;;;;;5038230;28;20183;-63
2021/12/01 02:47:54;;;;;;;53.97;24.80;;;;;;;;;;5056206;28;20029;-63
2021/12/01 02:50:20;;;;;;;51.28;24.60;;;;;;;;;;5038006;28;20465;-63
2021/12/01 02:52:46;;;;;;;69.30;31.13;;;;;;;;;;5056081;28;20032;-64
2021/12/01 02:55:16;;;;;;;70.50;32.60;;;;;;;;;;5055987;28;20043;-65
2021/12/01 02:57:52;;;;;;;59.58;27.80;;;;;;;;;;5056028;28;20102;-64
2021/12/01 03:00:19;;;;;;;50.22;23.30;;;;;;;;;;5055958;28;20032;-64
2021/12/01 03:02:46;;;;;;;51.30;23.88;;;;;;;;;;5055570;28;20469;-63
2021/12/01 03:05:13;;;;;;;45.83;21.80;;;;;;;;;;5037877;28;20068;-63
2021/12/01 03:07:39;;;;;;;52.70;24.67;;;;;;;;;;5055853;28;20033;-63
2021/12/01 03:10:06;;;;;;;58.88;27.70;;;;;;;;;;5055981;28;20052;-63
2021/12/01 03:12:33;;;;;;;48.83;24.02;;;;;;;;;;5055440;28;20112;-63
2021/12/01 03:14:59;;;;;;;51.22;25.75;;;;;;;;;;5055296;28;20100;-63
2021/12/01 03:17:32;;;;;;;47.88;22.63;;;;;;;;;;5055881;28;20029;-63
2021/12/01 03:19:59;;;;;;;39.60;19.52;;;;;;;;;;5055852;28;20060;-63
2021/12/01 03:22:26;;;;;;;48.60;22.35;;;;;;;;;;5055539;28;20025;-63
2021/12/01 03:24:53;;;;;;;44.20;20.38;;;;;;;;;;5037553;28;20396;-63
2021/12/01 03:27:20;;;;;;;46.30;22.55;;;;;;;;;;5037465;28;20119;-63
2021/12/01 03:29:47;;;;;;;64.47;30.20;;;;;;;;;;5055440;28;20025;-64
2021/12/01 03:32:13;;;;;;;58.45;28.67;;;;;;;;;;5037429;28;20021;-64
2021/12/01 03:34:41;;;;;;;64.05;30.00;;;;;;;;;;5055298;28;20024;-63
2021/12/01 03:37:07;;;;;;;57.05;26.50;;;;;;;;;;5055175;28;20056;-64
2021/12/01 03:39:34;;;;;;;36.25;19.05;;;;;;;;;;5055510;28;20021;-63
2021/12/01 03:42:01;;;;;;;55.53;23.42;;;;;;;;;;5055125;28;20108;-63
2021/12/01 03:44:27;;;;;;;64.03;27.30;;;;;;;;;;5055127;28;20128;-63
2021/12/01 03:46:53;;;;;;;58.33;25.75;;;;;;;;;;5036729;28;20107;-63
2021/12/01 03:49:20;;;;;;;52.47;23.73;;;;;;;;;;5055023;28;20022;-63
2021/12/01 03:51:46;;;;;;;54.28;23.77;;;;;;;;;;5054572;28;20132;-62
2021/12/01 03:54:12;;;;;;;48.50;25.88;;;;;;;;;;5054882;28;20020;-63
2021/12/01 03:56:39;;;;;;;55.83;27.05;;;;;;;;;;5036892;28;20025;-63
2021/12/01 03:59:05;;;;;;;62.90;29.50;;;;;;;;;;5054794;28;20029;-64
2021/12/01 04:01:32;;;;;;;81.88;39.90;;;;;;;;;;5054811;28;20036;-63
2021/12/01 04:04:02;;;;;;;73.45;34.33;;;;;;;;;;5036748;28;20036;-63
2021/12/01 04:06:28;;;;;;;77.53;37.88;;;;;;;;;;5054639;28;20029;-62
2021/12/01 04:08:55;;;;;;;68.25;29.73;;;;;;;;;;5054633;28;20029;-63
2021/12/01 04:11:21;;;;;;;75.47;32.50;;;;;;;;;;5036671;28;20021;-63
2021/12/01 04:13:48;;;;;;;68.53;31.35;;;;;;;;;;5054830;28;20063;-63
2021/12/01 04:16:15;;;;;;;44.53;21.73;;;;;;;;;;5054382;28;20040;-62
2021/12/01 04:18:42;;;;;;;60.10;28.27;;;;;;;;;;5054489;28;20112;-63
2021/12/01 04:21:08;;;;;;;71.57;31.67;;;;;;;;;;5036443;28;20029;-63
2021/12/01 04:23:34;;;;;;;111.00;47.95;;;;;;;;;;5036167;28;20029;-63
2021/12/01 04:26:01;;;;;;;88.90;41.80;;;;;;;;;;5053164;28;20029;-63
2021/12/01 04:28:28;;;;;;;60.28;29.80;;;;;;;;;;5054307;28;20036;-63
2021/12/01 04:30:54;;;;;;;51.10;24.55;;;;;;;;;;5054127;28;20029;-63
2021/12/01 04:33:21;;;;;;;39.42;19.73;;;;;;;;;;5054166;28;20025;-63
2021/12/01 04:35:49;;;;;;;41.67;18.20;;;;;;;;;;5054155;28;20112;-63
2021/12/01 04:38:16;;;;;;;31.67;15.52;;;;;;;;;;5054075;28;20064;-63
2021/12/01 04:40:42;;;;;;;35.90;17.67;;;;;;;;;;5036185;28;20032;-63
2021/12/01 04:43:08;;;;;;;42.28;17.67;;;;;;;;;;5035965;28;20108;-62
2021/12/01 04:45:41;;;;;;;43.53;17.65;;;;;;;;;;5053565;28;20410;-64
2021/12/01 04:48:07;;;;;;;31.13;13.45;;;;;;;;;;5053900;28;20029;-65
2021/12/01 04:50:33;;;;;;;24.98;11.75;;;;;;;;;;5035697;28;20124;-64
2021/12/01 04:52:59;;;;;;;22.60;10.10;;;;;;;;;;5053821;28;20068;-64
2021/12/01 04:55:27;;;;;;;22.90;9.20;;;;;;;;;;5053759;28;20033;-63
2021/12/01 04:57:57;;;;;;;13.75;7.07;;;;;;;;;;5053701;28;20025;-64
2021/12/01 05:00:26;;;;;;;14.45;7.93;;;;;;;;;;5035772;28;20025;-65
2021/12/01 05:02:53;;;;;;;41.30;18.25;;;;;;;;;;5053667;28;20029;-64
2021/12/01 05:05:19;;;;;;;76.65;36.45;;;;;;;;;;5035543;28;20029;-64
2021/12/01 05:07:46;;;;;;;118.30;57.47;;;;;;;;;;5035526;28;20774;-64
2021/12/01 05:10:12;;;;;;;62.03;32.47;;;;;;;;;;5053573;28;20025;-64
2021/12/01 05:12:39;;;;;;;44.67;22.58;;;;;;;;;;5053488;28;20096;-64
2021/12/01 05:15:06;;;;;;;34.45;16.20;;;;;;;;;;5053700;28;20029;-64
2021/12/01 05:17:32;;;;;;;36.83;16.55;;;;;;;;;;5053390;28;20108;-64
2021/12/01 05:19:58;;;;;;;38.95;16.23;;;;;;;;;;5053577;28;20111;-63
2021/12/01 05:22:25;;;;;;;29.20;14.10;;;;;;;;;;5053057;28;20410;-63
2021/12/01 05:24:52;;;;;;;25.90;11.95;;;;;;;;;;5035379;28;20112;-63
2021/12/01 05:27:18;;;;;;;28.00;13.95;;;;;;;;;;5053183;28;20039;-63
2021/12/01 05:29:44;;;;;;;36.10;17.95;;;;;;;;;;5053144;28;20024;-63
2021/12/01 05:32:11;;;;;;;33.38;14.80;;;;;;;;;;5035217;28;20033;-63
2021/12/01 05:34:37;;;;;;;48.65;24.05;;;;;;;;;;5053143;28;20055;-62
2021/12/01 05:37:03;;;;;;;59.80;26.13;;;;;;;;;;5052814;28;20543;-63
2021/12/01 05:39:32;;;;;;;44.70;21.70;;;;;;;;;;5044806;28;20029;-64
2021/12/01 05:41:59;;;;;;;56.95;26.65;;;;;;;;;;5073089;28;20032;-63
2021/12/01 05:44:25;;;;;;;36.50;17.10;;;;;;;;;;5072859;28;20024;-63
2021/12/01 05:46:52;;;;;;;48.05;23.48;;;;;;;;;;5072870;28;20457;-62
2021/12/01 05:49:18;;;;;;;62.72;28.20;;;;;;;;;;5072967;28;20530;-63
2021/12/01 05:51:44;;;;;;;56.63;20.48;;;;;;;;;;5054638;28;20045;-63
2021/12/01 05:54:11;;;;;;;55.72;19.40;;;;;;;;;;5072961;28;20055;-64
2021/12/01 05:56:37;;;;;;;51.60;18.45;;;;;;;;;;5072828;28;20108;-62
2021/12/01 05:59:05;;;;;;;41.05;17.90;;;;;;;;;;5072706;28;20049;-63
2021/12/01 06:01:31;;;;;;;57.90;19.73;;;;;;;;;;5054817;28;20380;-63
2021/12/01 06:03:57;;;;;;;43.90;19.73;;;;;;;;;;5054726;28;20115;-63
2021/12/01 06:06:23;;;;;;;40.78;17.70;;;;;;;;;;5072492;28;20036;-62
2021/12/01 06:08:50;;;;;;;36.35;17.30;;;;;;;;;;5054578;28;20516;-63
2021/12/01 06:11:16;;;;;;;47.85;23.45;;;;;;;;;;5072579;28;20053;-63
2021/12/01 06:13:44;;;;;;;49.38;25.20;;;;;;;;;;5054698;28;20112;-63
2021/12/01 06:16:10;;;;;;;59.05;27.67;;;;;;;;;;5054548;28;20046;-63
2021/12/01 06:18:36;;;;;;;61.08;30.98;;;;;;;;;;5054574;28;20157;-63
2021/12/01 06:21:03;;;;;;;50.45;23.98;;;;;;;;;;5072657;28;20058;-63
2021/12/01 06:23:29;;;;;;;107.38;48.13;;;;;;;;;;5054415;28;20086;-63
2021/12/01 06:25:55;;;;;;;129.45;60.88;;;;;;;;;;5072550;28;20032;-63
2021/12/01 06:28:22;;;;;;;126.07;55.80;;;;;;;;;;5072338;28;20104;-62
2021/12/01 06:30:48;;;;;;;121.82;58.75;;;;;;;;;;5072416;28;20059;-62
2021/12/01 06:33:14;;;;;;;122.30;55.65;;;;;;;;;;5072315;28;20111;-63
2021/12/01 06:35:46;;;;;;;100.63;46.70;;;;;;;;;;5054277;28;20029;-63
2021/12/01 06:38:12;;;;;;;107.43;51.58;;;;;;;;;;5054334;28;20025;-63
2021/12/01 06:40:39;;;;;;;118.78;57.10;;;;;;;;;;5072737;28;20054;-63
2021/12/01 06:43:05;;;;;;;125.20;58.90;;;;;;;;;;5072311;28;20028;-65
2021/12/01 06:45:31;;;;;;;134.70;61.55;;;;;;;;;;5072098;28;20039;-62
2021/12/01 06:47:57;;;;;;;175.75;86.40;;;;;;;;;;5071955;28;20029;-65
2021/12/01 06:50:24;;;;;;;205.27;98.53;;;;;;;;;;5057548;28;20451;-63
2021/12/01 06:52:50;;;;;;;233.52;109.05;;;;;;;;;;5075955;28;20118;-63
2021/12/01 06:55:16;;;;;;;238.27;108.80;;;;;;;;;;5076070;28;20033;-63
2021/12/01 06:57:42;;;;;;;215.30;98.80;;;;;;;;;;5075739;28;20475;-63
2021/12/01 07:00:11;;;;;;;242.15;105.75;;;;;;;;;;5075682;28;20437;-62
2021/12/01 07:02:38;;;;;;;254.65;113.88;;;;;;;;;;5075809;28;20025;-63
2021/12/01 07:05:04;;;;;;;252.10;113.40;;;;;;;;;;5075642;28;20032;-63
2021/12/01 07:07:31;;;;;;;235.55;106.32;;;;;;;;;;5075402;28;20542;-63
2021/12/01 07:09:57;;;;;;;225.05;107.32;;;;;;;;;;5075074;28;20028;-63
2021/12/01 07:12:23;;;;;;;222.75;104.82;;;;;;;;;;5074413;28;20430;-62
2021/12/01 07:14:50;;;;;;;217.93;103.80;;;;;;;;;;5074637;28;20104;-63
2021/12/01 07:17:16;;;;;;;211.50;102.25;;;;;;;;;;5074368;28;20041;-63
2021/12/01 07:19:43;;;;;;;216.50;104.53;;;;;;;;;;5046107;28;20017;-65
2021/12/01 07:22:10;;;;;;;201.13;97.10;;;;;;;;;;5065197;28;20044;-62
2021/12/01 07:24:36;;;;;;;211.25;101.10;;;;;;;;;;5063343;28;20063;-63
2021/12/01 07:27:02;;;;;;;210.25;100.38;;;;;;;;;;5069173;28;20495;-63
2021/12/01 07:29:30;;;;;;;194.60;90.85;;;;;;;;;;5075377;28;20021;-63
2021/12/01 07:31:56;;;;;;;198.55;92.57;;;;;;;;;;5057315;28;20025;-63
2021/12/01 07:34:30;;;;;;;208.38;93.18;;;;;;;;;;5057253;28;20038;-65
2021/12/01 07:36:56;;;;;;;175.13;82.70;;;;;;;;;;5074991;28;20354;-63
2021/12/01 07:39:22;;;;;;;181.45;87.03;;;;;;;;;;5075184;28;20035;-64
2021/12/01 07:41:49;;;;;;;167.27;81.78;;;;;;;;;;5065985;28;20032;-63
2021/12/01 07:44:15;;;;;;;183.20;83.43;;;;;;;;;;5037142;28;20033;-63
2021/12/01 07:46:42;;;;;;;196.20;90.15;;;;;;;;;;5036999;28;20060;-64
2021/12/01 07:49:19;;;;;;;195.57;89.60;;;;;;;;;;5036920;28;20056;-64
2021/12/01 07:51:45;;;;;;;181.05;80.25;;;;;;;;;;5036507;28;20057;-64
2021/12/01 07:54:11;;;;;;;155.52;67.20;;;;;;;;;;5055149;28;20113;-64
2021/12/01 07:56:38;;;;;;;139.00;62.00;;;;;;;;;;5054871;28;20032;-63
2021/12/01 07:59:04;;;;;;;106.80;49.33;;;;;;;;;;5036751;28;20036;-63
2021/12/01 08:01:30;;;;;;;99.78;42.08;;;;;;;;;;5054804;28;20112;-63
2021/12/01 08:03:56;;;;;;;74.38;31.65;;;;;;;;;;5062082;28;20027;-65
2021/12/01 08:06:23;;;;;;;78.40;34.97;;;;;;;;;;5074263;28;20540;-64
2021/12/01 08:08:49;;;;;;;83.20;33.53;;;;;;;;;;5073910;28;20032;-64
2021/12/01 08:11:16;;;;;;;78.90;35.83;;;;;;;;;;5074533;28;20032;-64
2021/12/01 08:13:42;;;;;;;84.63;38.53;;;;;;;;;;5074433;28;20024;-63
2021/12/01 08:16:08;;;;;;;88.80;38.33;;;;;;;;;;5074380;28;20028;-65
2021/12/01 08:18:35;;;;;;;64.80;30.27;;;;;;;;;;5074091;28;20383;-64
2021/12/01 08:21:01;;;;;;;63.40;26.15;;;;;;;;;;5074076;28;20032;-65
2021/12/01 08:23:27;;;;;;;63.90;26.15;;;;;;;;;;5056222;28;20020;-64
2021/12/01 08:25:53;;;;;;;50.30;21.33;;;;;;;;;;5074152;28;20066;-64
2021/12/01 08:28:19;;;;;;;46.65;19.85;;;;;;;;;;5056245;28;20112;-73
2021/12/01 08:30:46;;;;;;;40.67;18.38;;;;;;;;;;5056322;28;20036;-67
2021/12/01 08:33:12;;;;;;;39.63;17.33;;;;;;;;;;5056179;28;20056;-64
2021/12/01 08:35:40;;;;;;;27.85;13.60;;;;;;;;;;5073977;28;20056;-65
2021/12/01 08:38:06;;;;;;;21.17;12.18;;;;;;;;;;5073846;28;20025;-64
2021/12/01 08:40:32;;;;;;;29.92;15.35;;;;;;;;;;5073802;28;20089;-63
2021/12/01 08:42:58;;;;;;;33.35;15.40;;;;;;;;;;5055848;28;20376;-64
2021/12/01 08:45:25;;;;;;;33.15;15.60;;;;;;;;;;5055788;28;20098;-64
2021/12/01 08:47:51;;;;;;;41.22;15.98;;;;;;;;;;5073787;28;20025;-64
2021/12/01 08:50:18;;;;;;;40.50;14.35;;;;;;;;;;5073580;28;20049;-63
2021/12/01 08:52:45;;;;;;;33.05;14.63;;;;;;;;;;5055804;28;20271;-63
2021/12/01 08:55:11;;;;;;;33.90;16.85;;;;;;;;;;5073703;28;20024;-66
2021/12/01 08:57:39;;;;;;;26.63;13.75;;;;;;;;;;5073751;28;20024;-64
2021/12/01 09:00:06;;;;;;;39.55;13.32;;;;;;;;;;5073519;28;20024;-64
2021/12/01 09:02:33;;;;;;;39.83;14.30;;;;;;;;;;5055597;28;20463;-65
2021/12/01 09:04:59;;;;;;;27.83;12.25;;;;;;;;;;5073506;28;20024;-63
2021/12/01 09:07:26;;;;;;;24.63;12.85;;;;;;;;;;5073394;28;20498;-64
2021/12/01 09:09:52;;;;;;;29.00;12.35;;;;;;;;;;5073216;28;20021;-64
2021/12/01 09:12:18;;;;;;;30.92;16.77;;;;;;;;;;5072330;28;20104;-65
2021/12/01 09:14:45;;;;;;;32.53;12.75;;;;;;;;;;5073273;28;20086;-64
2021/12/01 09:17:12;;;;;;;23.67;11.70;;;;;;;;;;5073234;28;20025;-63
2021/12/01 09:19:39;;;;;;;37.95;18.90;;;;;;;;;;5055221;28;20027;-65
2021/12/01 09:22:05;;;;;;;30.75;18.25;;;;;;;;;;5053613;28;20024;-65
2021/12/01 09:24:32;;;;;;;47.28;19.77;;;;;;;;;;5072384;28;20464;-63
2021/12/01 09:26:58;;;;;;;40.30;17.40;;;;;;;;;;5072996;28;20033;-62
2021/12/01 09:29:27;;;;;;;43.03;17.25;;;;;;;;;;5072913;28;20086;-64
2021/12/01 09:31:53;;;;;;;30.80;16.13;;;;;;;;;;5055034;28;20025;-63
2021/12/01 09:34:20;;;;;;;36.00;16.00;;;;;;;;;;5072745;28;20547;-63
2021/12/01 09:36:46;;;;;;;23.75;12.10;;;;;;;;;;5072460;28;20426;-64
2021/12/01 09:39:12;;;;;;;28.80;12.02;;;14.20;99.90;;;;;;5054850;28;20052;-64
2021/12/01 09:41:38;;;;;;;23.60;12.23;;;;;;;;;;5055027;28;20105;-63
2021/12/01 09:44:04;;;;;;;18.50;11.00;;;14.30;99.90;;;;;;5054566;28;20025;-63
2021/12/01 09:46:30;;;;;;;13.15;7.35;;;13.80;84.60;;;;;;5072430;28;20206;-63
2021/12/01 09:48:57;;;;;;;22.13;8.48;;;13.70;86.50;;;;;;5054487;28;20511;-64
2021/12/01 09:51:23;;;;;;;27.48;9.98;;;13.60;80.90;;;;;;5072421;28;20400;-64
2021/12/01 09:53:49;;;;;;;20.48;9.60;;;13.80;89.40;;;;;;5072955;28;20065;-64
2021/12/01 09:56:16;;;;;;;19.05;10.10;;;13.80;79.30;;;;;;5072671;28;20060;-63
2021/12/01 09:58:43;;;;;;;25.75;13.02;;;13.90;80.70;;;;;;5072594;28;20055;-64
2021/12/01 10:01:15;;;;;;;23.35;12.07;;;14.00;83.00;;;;;;5072857;28;20060;-64
2021/12/01 10:03:43;;;;;;;30.05;15.05;;;;;;;;;;5072770;28;20028;-63
2021/12/01 10:06:12;;;;;;;37.60;21.38;;;;;;;;;;5072681;28;20031;-63
2021/12/01 10:08:49;;;;;;;40.83;18.77;;;14.10;78.90;;;;;;5054761;28;20140;-64
2021/12/01 10:11:20;;;;;;;33.55;16.77;;;;;;;;;;5072753;28;20031;-64
2021/12/01 10:13:55;;;;;;;38.33;17.90;;;14.50;80.10;;;;;;5054787;28;20029;-65
2021/12/01 10:16:22;;;;;;;43.72;20.20;;;15.20;76.40;;;;;;5072701;28;20036;-64
2021/12/01 10:18:57;;;;;;;43.58;21.40;;;15.50;74.40;;;;;;5072626;28;20487;-66
2021/12/01 10:21:33;;;;;;;40.88;19.55;;;16.10;70.80;;;;;;5072652;28;20024;-64
2021/12/01 10:24:07;;;;;;;49.60;25.67;;;16.00;68.90;;;;;;5076280;28;20028;-65
2021/12/01 10:26:56;;;;;;;55.38;24.02;;;16.00;69.60;;;;;;5076568;28;20037;-66
2021/12/01 10:29:27;;;;;;;49.35;22.98;;;15.80;65.80;;;;;;5075439;28;20034;-65
2021/12/01 10:31:57;;;;;;;51.40;23.10;;;15.70;66.40;;;;;;5074320;28;20017;-65
2021/12/01 10:34:31;;;;;;;39.83;20.50;;;;;;;;;;5057511;28;20021;-64
2021/12/01 10:37:14;;;;;;;35.35;17.60;;;;;;;;;;5057843;28;20033;-63
2021/12/01 10:39:45;;;;;;;34.78;16.55;;;;;;;;;;5076187;28;20028;-64
2021/12/01 10:42:14;;;;;;;31.25;15.98;;;;;;;;;;5058161;28;20404;-63
2021/12/01 10:45:04;;;;;;;22.10;11.88;;;16.30;67.00;;;;;;5076072;28;20028;-65
2021/12/01 10:47:42;;;;;;;20.33;11.50;;;16.50;62.50;;;;;;5076094;28;20035;-63
2021/12/01 10:50:20;;;;;;;22.35;11.80;;;16.10;62.30;;;;;;5058046;28;20399;-63
2021/12/01 10:52:52;;;;;;;19.27;10.30;;;15.50;64.40;;;;;;5075974;28;20039;-63
2021/12/01 10:55:21;;;;;;;18.73;9.60;;;14.70;64.50;;;;;;5075954;28;20070;-63
2021/12/01 10:57:57;;;;;;;17.75;9.13;;;14.30;68.20;;;;;;5057839;28;20115;-63
2021/12/01 11:00:44;;;;;;;26.45;14.68;;;14.00;67.30;;;;;;5075847;28;20112;-62
2021/12/01 11:03:13;;;;;;;19.98;10.43;;;13.80;70.20;;;;;;5065388;28;20370;-63
2021/12/01 11:05:45;;;;;;;13.35;6.13;;;13.60;69.50;;;;;;5075680;28;20123;-63
2021/12/01 11:08:26;;;;;;;9.15;5.50;;;13.80;69.10;;;;;;5055682;28;20067;-63
2021/12/01 11:11:04;;;;;;;10.73;5.05;;;13.70;68.40;;;;;;5056926;28;20027;-63
2021/12/01 11:13:31;;;;;;;9.40;5.80;;;13.90;68.80;;;;;;5057558;28;20033;-64
2021/12/01 11:16:02;;;;;;;14.43;7.45;;;13.60;69.50;;;;;;5068850;28;20029;-68
2021/12/01 11:18:29;;;;;;;;;;;13.60;67.90;;;;;;5076090;28;20036;-66
2021/12/01 11:21:00;;;;;;;9.02;4.45;;;13.50;68.00;;;;;;5075242;28;20379;-67
2021/12/01 11:23:32;;;;;;;8.80;4.53;;;13.50;69.00;;;;;;5075525;28;20021;-64
2021/12/01 11:26:10;;;;;;;19.30;7.65;;;13.50;70.60;;;;;;5075468;28;20376;-66
2021/12/01 11:28:44;;;;;;;14.68;6.32;;;13.50;69.30;;;;;;5075768;28;20437;-66
2021/12/01 11:31:17;;;;;;;10.27;5.32;;;13.50;90.40;;;;;;5075390;28;20052;-64
2021/12/01 11:33:46;;;;;;;7.90;3.50;;;13.50;92.00;;;;;;5052968;28;20037;-66
2021/12/01 11:36:23;;;;;;;9.65;3.90;;;13.40;85.30;;;;;;5073753;28;20154;-65
2021/12/01 11:38:54;;;;;;;8.40;3.97;;;13.40;91.20;;;;;;5057106;28;20028;-67
2021/12/01 11:41:21;;;;;;;8.35;4.13;;;13.60;91.10;;;;;;5055983;28;20052;-66
2021/12/01 11:43:48;;;;;;;7.32;4.07;;;;;;;;;;5074666;28;20032;-65
2021/12/01 11:46:15;;;;;;;6.55;4.18;;;13.60;68.20;;;;;;5074581;28;20116;-65
2021/12/01 11:48:50;;;;;;;6.28;2.95;;;14.10;69.60;;;;;;5075012;28;20036;-66
2021/12/01 11:51:22;;;;;;;8.77;3.58;;;13.90;68.60;;;;;;5074387;28;20432;-66
2021/12/01 11:53:53;;;;;;;5.78;3.25;;;13.80;68.70;;;;;;5074661;28;20040;-65
2021/12/01 11:56:32;;;;;;;4.30;3.13;;;13.60;71.10;;;;;;5056493;28;20089;-65
2021/12/01 11:59:00;;;;;;;4.85;2.92;;;14.20;68.80;;;;;;5074883;28;20032;-64
2021/12/01 12:01:26;;;;;;;8.02;4.07;;;14.10;67.80;;;;;;5074616;28;20035;-64
2021/12/01 12:04:01;;;;;;;5.03;3.10;;;13.90;69.60;;;;;;5072616;28;20100;-66
2021/12/01 12:06:35;;;;;;;9.00;3.00;;;13.70;69.30;;;;;;5056475;28;20059;-64
2021/12/01 12:09:09;;;;;;;5.47;2.80;;;13.70;69.50;;;;;;5073330;28;20453;-65
2021/12/01 12:11:44;;;;;;;3.33;2.38;;;13.90;69.40;;;;;;5074574;28;20037;-64
2021/12/01 12:14:28;;;;;;;6.90;3.58;;;14.50;67.00;;;;;;5056489;28;20083;-64
2021/12/01 12:17:13;;;;;;;5.55;3.70;;;14.70;66.40;;;;;;5073975;28;20441;-65
2021/12/01 12:20:03;;;;;;;4.00;3.15;;;14.30;68.30;;;;;;5074089;28;20480;-66
2021/12/01 12:22:42;;;;;;;5.05;2.70;;;13.90;67.00;;;;;;5074297;28;20056;-65
2021/12/01 12:25:11;;;;;;;9.88;2.90;;;13.90;67.40;;;;;;5074141;28;20020;-64
2021/12/01 12:27:46;;;;;;;5.53;3.30;;;13.70;69.90;;;;;;5074111;28;20044;-64
2021/12/01 12:30:14;;;;;;;3.70;2.40;;;13.80;69.20;;;;;;5073897;28;20028;-64
2021/12/01 12:32:42;;;;;;;5.13;2.40;;;13.70;68.40;;;;;;5056268;28;20055;-66
2021/12/01 12:35:14;;;;;;;4.63;2.97;;;13.60;68.60;;;;;;5073994;28;20030;-65
2021/12/01 12:37:41;;;;;;;6.05;2.30;;;13.60;69.10;;;;;;5074040;28;20033;-65
2021/12/01 12:40:19;;;;;;;7.93;3.15;;;13.60;69.40;;;;;;5074073;28;20058;-65
2021/12/01 12:43:05;;;;;;;6.75;3.47;;;13.60;69.00;;;;;;5074044;28;20028;-64
2021/12/01 12:45:32;;;;;;;7.47;4.05;;;13.60;71.00;;;;;;5073562;28;20078;-64
2021/12/01 12:47:58;;;;;;;12.32;5.60;;;13.60;69.40;;;;;;5073293;28;20431;-66
2021/12/01 12:50:24;;;;;;;3.63;2.63;;;13.60;69.70;;;;;;5073498;28;20485;-66
2021/12/01 12:53:03;;;;;;;15.35;5.60;;;13.60;69.80;;;;;;5073857;28;20024;-67
2021/12/01 12:55:29;;;;;;;3.55;1.85;;;13.50;69.10;;;;;;5073972;28;20036;-64
2021/12/01 12:58:01;;;;;;;4.65;2.90;;;13.50;68.90;;;;;;5055635;28;20365;-64
2021/12/01 13:00:36;;;;;;;13.13;7.53;;;13.50;70.60;;;;;;5073867;28;20028;-64
2021/12/01 13:03:22;;;;;;;4.63;2.00;;;13.60;70.00;;;;;;5073655;28;20036;-66
2021/12/01 13:05:56;;;;;;;5.50;3.85;;;13.50;69.70;;;;;;5059385;28;20428;-64
2021/12/01 13:08:37;;;;;;;9.00;5.43;;;13.40;71.30;;;;;;5073589;28;20052;-65
2021/12/01 13:11:06;;;;;;;7.18;2.97;;;;;;;;;;5073325;28;20090;-65
2021/12/01 13:13:43;;;;;;;7.95;3.83;;;13.60;71.50;;;;;;5073411;28;20017;-65
2021/12/01 13:16:11;;;;;;;8.48;3.47;;;13.60;71.40;;;;;;5073407;28;20448;-65
2021/12/01 13:18:50;;;;;;;4.47;2.80;;;13.80;71.20;;;;;;5073231;28;20047;-67
2021/12/01 13:21:19;;;;;;;3.92;2.70;;;13.90;70.50;;;;;;5073204;28;20107;-65
2021/12/01 13:23:58;;;;;;;5.70;2.60;;;13.90;71.10;;;;;;5073202;28;20036;-64
2021/12/01 13:26:32;;;;;;;5.22;2.78;;;14.10;69.50;;;;;;5073176;28;20037;-64
2021/12/01 13:29:05;;;;;;;4.40;2.50;;;14.30;69.70;;;;;;5073552;28;20028;-64
2021/12/01 13:31:33;;;;;;;5.97;3.03;;;15.00;67.30;;;;;;5073219;28;20143;-66
2021/12/01 13:34:00;;;;;;;6.03;3.03;;;14.80;68.20;;;;;;5073131;28;20115;-65
2021/12/01 13:36:47;;;;;;;2.67;2.05;;;14.30;69.20;;;;;;5055119;28;20032;-65
2021/12/01 13:39:25;;;;;;;6.40;3.00;;;14.10;69.20;;;;;;5055413;28;20373;-63
2021/12/01 13:41:59;;;;;;;6.63;2.80;;;14.00;70.40;;;;;;5054983;28;20032;-64
2021/12/01 13:44:34;;;;;;;12.90;3.60;;;14.10;69.10;;;;;;5073274;28;20035;-66
2021/12/01 13:47:26;;;;;;;4.38;2.40;;;13.90;70.30;;;;;;5073002;28;20028;-64
2021/12/01 13:49:57;;;;;;;13.13;3.33;;;13.70;70.70;;;;;;5064183;28;20040;-64
2021/12/01 13:52:25;;;;;;;6.00;2.93;;;13.90;71.70;;;;;;5072456;28;20420;-65
2021/12/01 13:54:52;;;;;;;7.32;3.40;;;13.60;72.40;;;;;;5071680;28;20024;-66
2021/12/01 13:57:18;;;;;;;4.43;2.67;;;13.40;73.30;;;;;;5071861;28;20037;-64
2021/12/01 13:59:49;;;;;;;10.52;2.00;;;;;;;;;;5072109;28;20025;-64
2021/12/01 14:02:25;;;;;;;5.00;2.42;;;13.10;73.40;;;;;;5071246;28;20111;-68